Time;durP1;ratioP1;P1;durP2;ratioP2;P2;SDS_P1;SDS_P2;PMS_P1;PMS_P2;Temp;Humidity;BMP_temperature;BMP_pressure;BME280_temperature;BME280_humidity;BME280_pressure;Samples;Min_cycle;Max_cycle;Signal;HPM_P1;HPM_P2
2024/03/27 00:00:15;;;;;;;3.40;2.70;;;;;;;;;;4961247;28;20054;-83
2024/03/27 00:02:41;;;;;;;3.58;2.50;;;;;;;;;;4977805;28;20050;-83
2024/03/27 00:05:07;;;;;;;3.42;2.15;;;;;;;;;;4993127;28;20070;-83
2024/03/27 00:07:32;;;;;;;3.60;2.28;;;;;;;;;;4960656;28;20324;-83
2024/03/27 00:09:58;;;;;;;4.78;2.60;;;;;;;;;;4976598;28;20050;-82
2024/03/27 00:12:24;;;;;;;5.88;2.58;;;;;;;;;;4993645;28;20057;-82
2024/03/27 00:14:49;;;;;;;3.83;2.35;;;;;;;;;;4976643;28;20077;-82
2024/03/27 00:17:15;;;;;;;4.45;2.92;;;;;;;;;;4976894;28;20076;-82
2024/03/27 00:19:40;;;;;;;3.10;2.60;;;;;;;;;;4976981;28;20050;-82
2024/03/27 00:22:06;;;;;;;3.83;2.67;;;;;;;;;;4976632;28;20148;-82
2024/03/27 00:24:32;;;;;;;5.60;2.50;;;;;;;;;;4968934;28;20062;-82
2024/03/27 00:26:57;;;;;;;3.80;2.95;;;;;;;;;;5003842;28;20070;-83
2024/03/27 00:29:23;;;;;;;3.25;2.42;;;;;;;;;;4980207;28;20050;-83
2024/03/27 00:31:49;;;;;;;4.75;2.50;;;;;;;;;;4995772;28;20053;-82
2024/03/27 00:34:15;;;;;;;3.60;2.70;;;;;;;;;;4961171;28;20456;-82
2024/03/27 00:36:41;;;;;;;3.20;2.40;;;;;;;;;;4960471;28;20508;-83
2024/03/27 00:39:06;;;;;;;4.70;2.55;;;;;;;;;;4980639;28;20116;-83
2024/03/27 00:41:32;;;;;;;4.25;2.65;;;;;;;;;;4960686;28;20050;-83
2024/03/27 00:43:58;;;;;;;5.70;2.75;;;;;;;;;;4984188;28;20137;-83
2024/03/27 00:46:24;;;;;;;4.32;2.90;;;;;;;;;;4992229;28;20520;-83
2024/03/27 00:48:49;;;;;;;3.88;2.42;;;;;;;;;;4960436;28;20051;-83
2024/03/27 00:51:15;;;;;;;4.85;2.65;;;;;;;;;;4988178;28;20504;-83
2024/03/27 00:53:40;;;;;;;3.85;2.42;;;;;;;;;;4985547;28;20069;-83
2024/03/27 00:56:07;;;;;;;3.42;2.67;;;;;;;;;;4977088;28;20054;-82
2024/03/27 00:58:32;;;;;;;3.63;2.60;;;;;;;;;;4961949;28;20066;-82
2024/03/27 01:00:58;;;;;;;4.65;2.95;;;;;;;;;;5006190;28;20060;-83
2024/03/27 01:03:24;;;;;;;2.83;2.15;;;;;;;;;;4987413;28;20072;-83
2024/03/27 01:05:50;;;;;;;4.40;3.08;;;;;;;;;;5008676;28;20061;-83
2024/03/27 01:08:15;;;;;;;3.50;2.50;;;;;;;;;;4999203;28;20058;-81
2024/03/27 01:10:41;;;;;;;5.60;2.92;;;;;;;;;;4990752;28;20238;-85
2024/03/27 01:13:09;;;;;;;3.63;2.70;;;;;;;;;;4976404;28;20128;-85
2024/03/27 01:15:35;;;;;;;3.67;2.47;;;;;;;;;;4975648;28;20481;-84
2024/03/27 01:18:02;;;;;;;4.65;2.65;;;;;;;;;;4991370;28;20065;-83
2024/03/27 01:20:29;;;;;;;3.25;2.30;;;;;;;;;;4992959;28;20066;-83
2024/03/27 01:22:55;;;;;;;3.63;2.63;;;;;;;;;;4962173;28;20050;-83
2024/03/27 01:25:21;;;;;;;3.65;2.70;;;;;;;;;;4999450;28;20050;-83
2024/03/27 01:27:47;;;;;;;6.50;2.85;;;;;;;;;;4996192;28;20064;-83
2024/03/27 01:30:13;;;;;;;5.88;2.42;;;;;;;;;;4980113;28;20042;-83
2024/03/27 01:32:38;;;;;;;4.70;2.67;;;;;;;;;;4994489;28;20130;-83
2024/03/27 01:35:04;;;;;;;4.00;2.83;;;;;;;;;;5007799;28;20058;-83
2024/03/27 01:37:30;;;;;;;4.63;2.97;;;;;;;;;;4983176;28;20092;-83
2024/03/27 01:39:55;;;;;;;4.97;2.65;;;;;;;;;;4966590;28;20089;-83
2024/03/27 01:42:21;;;;;;;3.05;2.22;;;;;;;;;;4983668;28;20051;-83
2024/03/27 01:44:46;;;;;;;3.25;2.67;;;;;;;;;;4980066;28;20145;-83
2024/03/27 01:47:12;;;;;;;3.17;2.55;;;;;;;;;;4980961;28;20520;-83
2024/03/27 01:49:39;;;;;;;4.03;2.60;;;;;;;;;;4981261;28;20073;-84
2024/03/27 01:52:04;;;;;;;6.18;2.58;;;;;;;;;;4970009;28;20394;-83
2024/03/27 01:54:30;;;;;;;5.22;2.75;;;;;;;;;;4980815;28;20112;-82
2024/03/27 01:56:56;;;;;;;5.32;2.67;;;;;;;;;;4971052;28;20337;-83
2024/03/27 01:59:22;;;;;;;5.63;2.90;;;;;;;;;;5003523;28;20050;-80
2024/03/27 02:01:48;;;;;;;5.60;2.67;;;;;;;;;;4973983;28;20123;-81
2024/03/27 02:04:13;;;;;;;5.18;3.10;;;;;;;;;;4968715;28;20054;-82
2024/03/27 02:06:39;;;;;;;5.32;2.70;;;;;;;;;;4979300;28;20584;-82
2024/03/27 02:09:05;;;;;;;3.78;2.90;;;;;;;;;;4979995;28;20104;-82
2024/03/27 02:11:30;;;;;;;4.78;2.65;;;;;;;;;;4963248;28;20050;-82
2024/03/27 02:13:56;;;;;;;4.50;3.08;;;;;;;;;;4976986;28;20073;-82
2024/03/27 02:16:22;;;;;;;5.15;2.65;;;;;;;;;;5000155;28;20054;-82
2024/03/27 02:18:47;;;;;;;3.58;3.03;;;;;;;;;;4983279;28;20089;-82
2024/03/27 02:21:13;;;;;;;4.60;2.63;;;;;;;;;;5015801;28;20045;-81
2024/03/27 02:23:44;;;;;;;6.60;2.83;;;;;;;;;;4982882;28;20057;-81
2024/03/27 02:26:16;;;;;;;2.67;2.38;;;;;;;;;;4990883;28;20401;-81
2024/03/27 02:28:44;;;;;;;4.00;2.88;;;;;;;;;;4998692;28;20056;-80
2024/03/27 02:31:10;;;;;;;4.55;3.25;;;;;;;;;;4999206;28;20046;-82
2024/03/27 02:33:36;;;;;;;5.13;3.03;;;;;;;;;;4998305;28;20049;-82
2024/03/27 02:36:02;;;;;;;4.82;2.25;;;;;;;;;;5012127;28;20057;-81
2024/03/27 02:38:27;;;;;;;5.22;2.55;;;;;;;;;;5004409;28;20062;-82
2024/03/27 02:40:53;;;;;;;6.18;3.00;;;;;;;;;;4986247;28;20066;-82
2024/03/27 02:43:19;;;;;;;4.30;2.58;;;;;;;;;;5000081;28;20065;-82
2024/03/27 02:45:44;;;;;;;6.20;3.55;;;;;;;;;;5006900;28;20121;-82
2024/03/27 02:48:10;;;;;;;4.78;2.75;;;;;;;;;;4985211;28;20050;-82
2024/03/27 02:50:35;;;;;;;5.13;2.95;;;;;;;;;;4999337;28;20705;-81
2024/03/27 02:53:01;;;;;;;5.43;3.15;;;;;;;;;;4997908;28;20057;-82
2024/03/27 02:55:26;;;;;;;4.00;2.83;;;;;;;;;;4980692;28;20132;-81
2024/03/27 02:57:52;;;;;;;6.68;3.17;;;;;;;;;;4991329;28;20058;-81
2024/03/27 03:00:18;;;;;;;5.07;3.10;;;;;;;;;;4998762;28;20054;-81
2024/03/27 03:02:43;;;;;;;4.70;3.03;;;;;;;;;;4997634;28;20050;-83
2024/03/27 03:05:09;;;;;;;10.27;4.85;;;;;;;;;;4998418;28;20049;-83
2024/03/27 03:07:34;;;;;;;5.35;3.50;;;;;;;;;;4984195;28;20054;-82
2024/03/27 03:10:00;;;;;;;5.35;3.30;;;;;;;;;;4991155;28;20046;-82
2024/03/27 03:12:25;;;;;;;5.97;3.28;;;;;;;;;;4979732;28;20057;-81
2024/03/27 03:14:51;;;;;;;4.25;3.00;;;;;;;;;;4986912;28;20061;-81
2024/03/27 03:17:17;;;;;;;3.40;2.90;;;;;;;;;;4980113;28;20061;-81
2024/03/27 03:19:42;;;;;;;3.97;3.17;;;;;;;;;;4989035;28;20080;-82
2024/03/27 03:22:11;;;;;;;4.88;3.17;;;;;;;;;;5002244;28;20108;-82
2024/03/27 03:24:36;;;;;;;4.75;3.38;;;;;;;;;;5002891;28;20057;-79
2024/03/27 03:27:02;;;;;;;5.65;3.10;;;;;;;;;;4985098;28;20057;-79
2024/03/27 03:29:27;;;;;;;3.65;3.30;;;;;;;;;;4984965;28;20428;-83
2024/03/27 03:31:54;;;;;;;4.00;2.80;;;;;;;;;;5000175;28;20061;-83
2024/03/27 03:34:20;;;;;;;5.75;2.85;;;;;;;;;;4997578;28;20046;-84
2024/03/27 03:36:45;;;;;;;3.75;2.85;;;;;;;;;;4999276;28;20108;-82
2024/03/27 03:39:11;;;;;;;4.15;3.30;;;;;;;;;;4996852;28;20053;-83
2024/03/27 03:41:36;;;;;;;5.60;3.10;;;;;;;;;;4997866;28;20141;-83
2024/03/27 03:44:02;;;;;;;5.13;2.97;;;;;;;;;;4980295;28;20046;-83
2024/03/27 03:46:28;;;;;;;5.22;2.88;;;;;;;;;;4997843;28;20073;-84
2024/03/27 03:48:53;;;;;;;4.22;3.10;;;;;;;;;;5014333;28;20046;-83
2024/03/27 03:51:19;;;;;;;3.17;2.63;;;;;;;;;;4982432;28;20077;-84
2024/03/27 03:53:44;;;;;;;4.28;2.97;;;;;;;;;;5014506;28;20050;-83
2024/03/27 03:56:10;;;;;;;3.72;2.67;;;;;;;;;;4982853;28;20058;-83
2024/03/27 03:58:35;;;;;;;3.85;3.05;;;;;;;;;;4999112;28;20084;-83
2024/03/27 04:01:01;;;;;;;4.88;2.92;;;;;;;;;;4993555;28;20472;-82
2024/03/27 04:03:26;;;;;;;4.43;3.38;;;;;;;;;;5031620;28;20046;-81
2024/03/27 04:05:52;;;;;;;6.18;3.30;;;;;;;;;;5009539;28;20037;-82
2024/03/27 04:08:17;;;;;;;4.93;3.22;;;;;;;;;;5031731;28;20101;-85
2024/03/27 04:10:43;;;;;;;5.32;3.10;;;;;;;;;;5000623;28;20054;-80
2024/03/27 04:13:09;;;;;;;3.83;3.35;;;;;;;;;;4989406;28;20058;-82
2024/03/27 04:15:41;;;;;;;6.43;3.30;;;;;;;;;;5000427;28;20125;-82
2024/03/27 04:18:06;;;;;;;5.80;3.35;;;;;;;;;;4983896;28;20207;-82
2024/03/27 04:20:32;;;;;;;7.97;3.85;;;;;;;;;;4959829;28;20061;-82
2024/03/27 04:22:57;;;;;;;6.57;2.90;;;;;;;;;;4959666;28;20058;-82
2024/03/27 04:25:23;;;;;;;6.90;3.10;;;;;;;;;;4975481;28;20058;-81
2024/03/27 04:27:49;;;;;;;3.00;2.65;;;;;;;;;;4960670;28;20050;-83
2024/03/27 04:30:16;;;;;;;3.65;2.40;;;;;;;;;;4980609;28;20390;-84
2024/03/27 04:32:42;;;;;;;4.32;3.38;;;;;;;;;;4993170;28;20062;-85
2024/03/27 04:35:08;;;;;;;3.65;2.65;;;;;;;;;;4971445;28;20089;-85
2024/03/27 04:37:34;;;;;;;5.82;3.10;;;;;;;;;;4976854;28;20050;-84
2024/03/27 04:40:33;;;;;;;4.85;3.13;;;;;;;;;;4961487;28;20080;-85
2024/03/27 04:42:51;;;;;;;4.50;3.35;;;;;;;;;;4974641;28;20050;-85
2024/03/27 04:45:17;;;;;;;4.72;3.30;;;;;;;;;;4968406;28;20054;-84
2024/03/27 04:47:42;;;;;;;4.07;3.03;;;;;;;;;;4992895;28;20133;-84
2024/03/27 04:50:08;;;;;;;12.48;3.50;;;;;;;;;;4977979;28;20058;-85
2024/03/27 04:52:35;;;;;;;9.00;3.53;;;;;;;;;;5000260;28;20057;-85
2024/03/27 04:55:03;;;;;;;3.75;2.90;;;;;;;;;;4986708;28;20046;-83
2024/03/27 04:57:29;;;;;;;5.00;3.40;;;;;;;;;;5012181;28;20085;-84
2024/03/27 04:59:54;;;;;;;5.60;3.20;;;;;;;;;;4986874;28;20058;-81
2024/03/27 05:02:20;;;;;;;5.07;3.35;;;;;;;;;;4976606;28;20061;-82
2024/03/27 05:04:47;;;;;;;5.75;3.22;;;;;;;;;;4960986;28;20054;-82
2024/03/27 05:07:12;;;;;;;4.28;3.15;;;;;;;;;;4976872;28;20537;-81
2024/03/27 05:09:38;;;;;;;4.75;3.40;;;;;;;;;;4976032;28;20141;-80
2024/03/27 05:12:04;;;;;;;6.95;3.65;;;;;;;;;;4960926;28;20051;-83
2024/03/27 05:14:30;;;;;;;6.82;3.75;;;;;;;;;;4976522;28;20077;-82
2024/03/27 05:16:56;;;;;;;4.47;3.22;;;;;;;;;;4972865;28;20061;-81
2024/03/27 05:19:22;;;;;;;5.90;3.70;;;;;;;;;;4957988;28;20062;-82
2024/03/27 05:21:48;;;;;;;5.43;3.65;;;;;;;;;;4976792;28;20062;-81
2024/03/27 05:24:13;;;;;;;6.55;3.95;;;;;;;;;;4987188;28;20085;-81
2024/03/27 05:26:39;;;;;;;7.18;3.95;;;;;;;;;;4984757;28;20046;-81
2024/03/27 05:29:05;;;;;;;5.22;3.40;;;;;;;;;;4975657;28;20079;-82
2024/03/27 05:31:30;;;;;;;5.47;3.90;;;;;;;;;;4991351;28;20065;-81
2024/03/27 05:33:56;;;;;;;6.35;3.35;;;;;;;;;;4977169;28;20066;-81
2024/03/27 05:36:22;;;;;;;4.50;3.58;;;;;;;;;;4990952;28;20054;-81
2024/03/27 05:38:48;;;;;;;5.65;3.10;;;;;;;;;;4983034;28;20050;-82
2024/03/27 05:41:13;;;;;;;4.43;3.22;;;;;;;;;;4969236;28;20054;-82
2024/03/27 05:43:39;;;;;;;4.45;3.03;;;;;;;;;;4974522;28;20429;-81
2024/03/27 05:46:05;;;;;;;5.47;3.42;;;;;;;;;;4963206;28;20046;-81
2024/03/27 05:48:30;;;;;;;6.82;3.65;;;;;;;;;;4993756;28;20523;-81
2024/03/27 05:50:56;;;;;;;7.10;3.78;;;;;;;;;;4992233;28;20543;-81
2024/03/27 05:53:22;;;;;;;5.20;3.33;;;;;;;;;;4958411;28;20055;-81
2024/03/27 05:55:57;;;;;;;4.35;3.15;;;;;;;;;;4957955;28;20086;-82
2024/03/27 05:58:23;;;;;;;8.38;4.32;;;;;;;;;;5004358;28;20526;-82
2024/03/27 06:00:48;;;;;;;5.40;3.45;;;;;;;;;;4982428;28;20050;-82
2024/03/27 06:03:14;;;;;;;5.22;3.60;;;;;;;;;;4981710;28;20046;-81
2024/03/27 06:05:40;;;;;;;5.75;3.30;;;;;;;;;;4976681;28;20051;-81
2024/03/27 06:08:06;;;;;;;10.13;4.35;;;;;;;;;;4981253;28;20423;-81
2024/03/27 06:10:31;;;;;;;5.72;4.10;;;;;;;;;;4987626;28;20137;-81
2024/03/27 06:12:57;;;;;;;7.50;4.05;;;;;;;;;;4962227;28;20054;-84
2024/03/27 06:15:25;;;;;;;8.55;4.32;;;;;;;;;;4979363;28;20058;-86
2024/03/27 06:17:51;;;;;;;4.97;3.65;;;;;;;;;;4963540;28;20516;-86
2024/03/27 06:20:17;;;;;;;4.30;3.67;;;;;;;;;;4963811;28;20109;-86
2024/03/27 06:22:43;;;;;;;6.00;3.97;;;;;;;;;;4994511;28;20046;-83
2024/03/27 06:25:09;;;;;;;7.15;3.80;;;;;;;;;;4997174;28;20055;-86
2024/03/27 06:27:34;;;;;;;6.20;3.85;;;;;;;;;;4996681;28;20472;-85
2024/03/27 06:30:00;;;;;;;7.38;4.22;;;;;;;;;;4961870;28;20050;-85
2024/03/27 06:32:26;;;;;;;9.13;4.35;;;;;;;;;;4998127;28;20073;-84
2024/03/27 06:34:51;;;;;;;5.43;4.03;;;;;;;;;;4972148;28;20046;-86
2024/03/27 06:37:17;;;;;;;11.23;4.32;;;;;;;;;;4993958;28;20117;-87
2024/03/27 06:39:43;;;;;;;8.90;4.43;;;;;;;;;;4979253;28;20051;-86
2024/03/27 06:42:09;;;;;;;7.10;4.07;;;;;;;;;;4979047;28;20053;-85
2024/03/27 06:44:35;;;;;;;5.70;4.25;;;;;;;;;;4987093;28;20133;-88
2024/03/27 06:47:00;;;;;;;8.18;4.10;;;;;;;;;;4981797;28;20069;-85
2024/03/27 06:49:33;;;;;;;7.93;4.80;;;;;;;;;;4986298;28;20138;-84
2024/03/27 06:52:01;;;;;;;9.25;4.35;;;;;;;;;;4974112;28;20066;-83
2024/03/27 06:54:27;;;;;;;11.95;4.13;;;;;;;;;;4982873;28;20058;-85
2024/03/27 06:56:52;;;;;;;7.03;3.90;;;;;;;;;;4987803;28;20116;-81
2024/03/27 06:59:18;;;;;;;9.75;4.75;;;;;;;;;;5013721;28;20062;-77
2024/03/27 07:01:43;;;;;;;7.90;4.38;;;;;;;;;;5007613;28;20132;-78
2024/03/27 07:04:09;;;;;;;10.40;4.18;;;;;;;;;;4994268;28;20057;-78
2024/03/27 07:06:35;;;;;;;6.97;4.13;;;;;;;;;;4973180;28;20575;-78
2024/03/27 07:09:00;;;;;;;9.35;4.65;;;;;;;;;;4978532;28;20061;-78
2024/03/27 07:11:26;;;;;;;9.40;4.20;;;;;;;;;;4983152;28;20058;-77
2024/03/27 07:13:51;;;;;;;8.38;4.10;;;;;;;;;;4974700;28;20062;-77
2024/03/27 07:16:17;;;;;;;9.57;5.15;;;;;;;;;;4958885;28;20432;-77
2024/03/27 07:18:42;;;;;;;6.43;3.70;;;;;;;;;;4975347;28;20505;-78
2024/03/27 07:21:08;;;;;;;7.50;4.63;;;;;;;;;;4975666;28;20123;-77
2024/03/27 07:23:33;;;;;;;5.57;4.10;;;;;;;;;;4974406;28;20053;-78
2024/03/27 07:26:04;;;;;;;8.27;4.50;;;;;;;;;;4990525;28;20050;-78
2024/03/27 07:28:29;;;;;;;7.22;4.47;;;;;;;;;;4991313;28;20050;-79
2024/03/27 07:30:55;;;;;;;7.03;4.45;;;;;;;;;;4975281;28;20057;-78
2024/03/27 07:33:21;;;;;;;9.10;4.85;;;;;;;;;;4958877;28;20424;-79
2024/03/27 07:35:46;;;;;;;6.07;4.53;;;;;;;;;;4974595;28;20054;-79
2024/03/27 07:38:12;;;;;;;9.70;4.60;;;;;;;;;;4974405;28;20057;-78
2024/03/27 07:40:38;;;;;;;5.72;4.47;;;;;;;;;;4993681;28;20121;-80
2024/03/27 07:43:03;;;;;;;10.90;4.40;;;;;;;;;;4982001;28;20429;-80
2024/03/27 07:45:29;;;;;;;8.25;4.15;;;;;;;;;;4981600;28;20093;-80
2024/03/27 07:47:54;;;;;;;9.73;4.40;;;;;;;;;;4979373;28;20046;-80
2024/03/27 07:50:20;;;;;;;12.00;5.47;;;;;;;;;;4982463;28;20112;-78
2024/03/27 07:52:46;;;;;;;9.57;4.20;;;;;;;;;;4959902;28;20108;-81
2024/03/27 07:55:11;;;;;;;8.18;4.15;;;;;;;;;;4991466;28;20500;-79
2024/03/27 07:57:38;;;;;;;6.63;4.30;;;;;;;;;;4982688;28;20058;-79
2024/03/27 08:00:04;;;;;;;7.03;4.93;;;;;;;;;;4997858;28;20125;-79
2024/03/27 08:02:29;;;;;;;7.30;4.40;;;;;;;;;;4984969;28;20066;-79
2024/03/27 08:04:55;;;;;;;7.75;4.13;;;;;;;;;;4961291;28;20049;-78
2024/03/27 08:07:21;;;;;;;8.25;4.40;;;;;;;;;;4962703;28;20079;-79
2024/03/27 08:09:52;;;;;;;7.38;4.72;;;;;;;;;;4975484;28;20046;-78
2024/03/27 08:12:18;;;;;;;8.93;6.38;;;;;;;;;;4974020;28;20666;-78
2024/03/27 08:14:44;;;;;;;8.98;5.00;;;;;;;;;;5000427;28;20046;-78
2024/03/27 08:17:10;;;;;;;9.05;4.93;;;;;;;;;;4949847;28;20038;-77
2024/03/27 08:19:40;;;;;;;7.47;4.53;;;;;;;;;;4987536;28;20049;-78
2024/03/27 08:22:06;;;;;;;12.30;4.75;;;;;;;;;;5001230;28;20038;-79
2024/03/27 08:24:31;;;;;;;9.15;5.57;;;;;;;;;;4974659;28;20120;-77
2024/03/27 08:26:57;;;;;;;16.42;4.93;;;;;;;;;;4994146;28;20560;-77
2024/03/27 08:29:22;;;;;;;6.35;4.85;;;;;;;;;;4993514;28;20057;-78
2024/03/27 08:31:48;;;;;;;9.18;5.30;;;;;;;;;;4971999;28;20635;-78
2024/03/27 08:34:13;;;;;;;6.70;5.57;;;;;;;;;;4959547;28;20050;-79
2024/03/27 08:36:39;;;;;;;8.32;5.13;;;;;;;;;;4997892;28;20053;-79
2024/03/27 08:39:07;;;;;;;9.15;4.97;;;;;;;;;;4960785;28;20050;-79
2024/03/27 08:41:32;;;;;;;6.63;5.00;;;;;;;;;;4999342;28;20502;-78
2024/03/27 08:43:58;;;;;;;8.13;4.85;;;;;;;;;;4993527;28;20094;-77
2024/03/27 08:46:23;;;;;;;9.65;5.20;;;;;;;;;;5001318;28;20046;-77
2024/03/27 08:48:50;;;;;;;8.20;4.35;;;;;;;;;;4984745;28;20097;-78
2024/03/27 08:51:16;;;;;;;8.20;4.82;;;;;;;;;;5000963;28;20054;-78
2024/03/27 08:53:41;;;;;;;7.72;4.75;;;;;;;;;;5002532;28;20062;-78
2024/03/27 08:56:07;;;;;;;6.05;4.07;;;;;;;;;;5000449;28;20508;-78
2024/03/27 08:58:33;;;;;;;9.13;4.63;;;;;;;;;;4997514;28;20062;-78
2024/03/27 09:00:58;;;;;;;6.20;5.00;;;;;;;;;;4996850;28;20096;-78
2024/03/27 09:03:24;;;;;;;6.93;4.90;;;;;;;;;;5008713;28;20046;-78
2024/03/27 09:05:49;;;;;;;8.70;4.88;;;;;;;;;;4980106;28;20523;-79
2024/03/27 09:08:15;;;;;;;12.05;4.80;;;;;;;;;;5004749;28;20460;-78
2024/03/27 09:10:40;;;;;;;7.60;4.75;;;;;;;;;;4986100;28;20053;-78
2024/03/27 09:13:06;;;;;;;8.32;4.82;;;;;;;;;;4964188;28;20125;-78
2024/03/27 09:15:31;;;;;;;7.88;4.50;;;;;;;;;;4981237;28;20050;-79
2024/03/27 09:17:57;;;;;;;6.10;4.00;;;;;;;;;;4983226;28;20057;-79
2024/03/27 09:20:22;;;;;;;8.30;4.53;;;;;;;;;;5001218;28;20050;-78
2024/03/27 09:22:48;;;;;;;8.35;5.03;;;;;;;;;;4973351;28;20108;-78
2024/03/27 09:25:14;;;;;;;13.15;5.93;;;;;;;;;;4958599;28;20054;-78
2024/03/27 09:27:39;;;;;;;8.40;4.60;;;;;;;;;;4979096;28;20046;-78
2024/03/27 09:30:05;;;;;;;9.35;5.20;;;;;;;;;;4957875;28;20046;-78
2024/03/27 09:32:31;;;;;;;10.65;4.75;;;;;;;;;;4964104;28;20043;-78
2024/03/27 09:34:56;;;;;;;7.90;3.92;;;;;;;;;;4975613;28;20046;-78
2024/03/27 09:37:22;;;;;;;9.00;4.35;;;;;;;;;;4956894;28;20057;-78
2024/03/27 09:39:47;;;;;;;6.00;4.05;;;;;;;;;;4990995;28;20172;-78
2024/03/27 09:42:13;;;;;;;7.53;4.40;;;;;;;;;;4997274;28;20077;-78
2024/03/27 09:44:38;;;;;;;16.13;4.88;;;;;;;;;;4951499;28;20469;-80
2024/03/27 09:47:04;;;;;;;9.43;4.63;;;;;;;;;;4957219;28;20050;-78
2024/03/27 09:49:29;;;;;;;14.25;4.60;;;;;;;;;;4968125;28;20042;-78
2024/03/27 09:51:58;;;;;;;8.15;4.60;;;;;;;;;;4987055;28;20121;-78
2024/03/27 09:54:28;;;;;;;5.50;3.88;;;;;;;;;;5005074;28;20496;-78
2024/03/27 09:56:56;;;;;;;7.85;4.50;;;;;;;;;;4978814;28;20066;-78
2024/03/27 09:59:22;;;;;;;5.50;4.15;;;;;;;;;;4948858;28;20054;-78
2024/03/27 10:01:58;;;;;;;8.70;5.00;;;;;;;;;;4989684;28;20507;-78
2024/03/27 10:04:23;;;;;;;7.53;4.60;;;;;;;;;;4979400;28;20499;-78
2024/03/27 10:06:50;;;;;;;6.82;4.43;;;;;;;;;;4974192;28;20056;-78
2024/03/27 10:09:15;;;;;;;8.23;5.00;;;;;;;;;;4951937;28;20104;-77
2024/03/27 10:11:42;;;;;;;8.90;4.63;;;;;;;;;;4977023;28;20488;-78
2024/03/27 10:14:07;;;;;;;8.98;4.72;;;;;;;;;;4998342;28;20529;-78
2024/03/27 10:16:33;;;;;;;10.90;4.80;;;;;;;;;;4960753;28;20062;-78
2024/03/27 10:18:59;;;;;;;14.60;5.85;;;;;;;;;;4989678;28;20508;-78
2024/03/27 10:21:26;;;;;;;8.55;4.75;;;;;;;;;;4961377;28;20050;-77
2024/03/27 10:23:51;;;;;;;15.07;4.47;;;;;;;;;;5003429;28;20077;-77
2024/03/27 10:26:17;;;;;;;6.63;4.63;;;;;;;;;;4984042;28;20587;-77
2024/03/27 10:28:43;;;;;;;9.75;5.03;;;;;;;;;;4960600;28;20050;-77
2024/03/27 10:31:08;;;;;;;7.25;4.18;;;;;;;;;;4997776;28;20440;-78
2024/03/27 10:33:34;;;;;;;6.00;4.03;;;;;;;;;;4977349;28;20062;-78
2024/03/27 10:35:59;;;;;;;7.60;4.43;;;;;;;;;;4981010;28;20069;-77
2024/03/27 10:38:29;;;;;;;7.13;4.30;;;;;;;;;;5003451;28;20088;-79
2024/03/27 10:40:58;;;;;;;7.72;4.35;;;;;;;;;;4979743;28;20054;-78
2024/03/27 10:43:28;;;;;;;6.50;4.18;;;;;;;;;;4963529;28;20050;-77
2024/03/27 10:45:55;;;;;;;6.15;4.38;;;;;;;;;;4979324;28;20424;-78
2024/03/27 10:48:20;;;;;;;6.80;3.95;;;;;;;;;;4994122;28;20429;-78
2024/03/27 10:50:46;;;;;;;7.25;4.60;;;;;;;;;;4977456;28;20050;-78
2024/03/27 10:53:11;;;;;;;6.15;3.67;;;;;;;;;;4961257;28;20062;-78
2024/03/27 10:55:39;;;;;;;4.32;3.47;;;;;;;;;;4976376;28;20417;-78
2024/03/27 10:58:05;;;;;;;7.05;4.05;;;;;;;;;;4992686;28;20070;-78
2024/03/27 11:00:31;;;;;;;5.88;4.05;;;;;;;;;;4960384;28;20051;-78
2024/03/27 11:02:57;;;;;;;6.78;4.20;;;;;;;;;;4980395;28;20053;-78
2024/03/27 11:05:26;;;;;;;7.20;4.43;;;;;;;;;;5008666;28;20058;-78
2024/03/27 11:07:52;;;;;;;6.22;4.75;;;;;;;;;;4992735;28;20042;-78
2024/03/27 11:10:22;;;;;;;7.13;4.60;;;;;;;;;;4960560;28;20855;-79
2024/03/27 11:12:48;;;;;;;8.98;4.72;;;;;;;;;;4992433;28;20448;-78
2024/03/27 11:15:17;;;;;;;10.35;5.20;;;;;;;;;;5004531;28;20093;-78
2024/03/27 11:17:55;;;;;;;7.50;5.43;;;;;;;;;;4992462;28;20062;-78
2024/03/27 11:20:21;;;;;;;6.90;4.43;;;;;;;;;;4991487;28;20512;-78
2024/03/27 11:22:47;;;;;;;7.07;4.10;;;;;;;;;;4990987;28;20062;-79
2024/03/27 11:25:13;;;;;;;10.60;4.60;;;;;;;;;;5001861;28;20046;-79
2024/03/27 11:27:39;;;;;;;6.72;3.85;;;;;;;;;;4972343;28;20129;-78
2024/03/27 11:30:05;;;;;;;6.10;3.80;;;;;;;;;;5001957;28;20573;-82
2024/03/27 11:32:34;;;;;;;5.15;3.60;;;;;;;;;;4984849;28;20078;-78
2024/03/27 11:35:03;;;;;;;4.53;4.03;;;;;;;;;;4976927;28;20432;-74
2024/03/27 11:37:28;;;;;;;9.07;4.35;;;;;;;;;;4979504;28;20058;-72
2024/03/27 11:39:54;;;;;;;4.70;4.20;;;;;;;;;;4968965;28;20054;-74
2024/03/27 11:42:19;;;;;;;6.00;4.10;;;;;;;;;;4974419;28;20137;-72
2024/03/27 11:44:45;;;;;;;5.45;4.13;;;;;;;;;;4973766;28;20428;-77
2024/03/27 11:47:11;;;;;;;5.30;4.28;;;;;;;;;;4977983;28;20057;-77
2024/03/27 11:49:39;;;;;;;6.25;3.83;;;;;;;;;;5006567;28;20050;-77
2024/03/27 11:52:05;;;;;;;5.00;3.22;;;;;;;;;;4990622;28;20389;-78
2024/03/27 11:54:30;;;;;;;6.07;3.72;;;;;;;;;;4956804;28;20076;-76
2024/03/27 11:56:56;;;;;;;5.05;4.20;;;;;;;;;;4974144;28;20058;-76
2024/03/27 11:59:21;;;;;;;13.82;4.43;;;;;;;;;;4973814;28;20058;-76
2024/03/27 12:01:48;;;;;;;6.28;3.97;;;;;;;;;;4973811;28;20061;-77
2024/03/27 12:04:14;;;;;;;6.95;3.67;;;;;;;;;;4989382;28;20055;-76
2024/03/27 12:06:41;;;;;;;10.15;4.03;;;;;;;;;;4957268;28;20129;-78
2024/03/27 12:09:11;;;;;;;4.63;3.08;;;;;;;;;;4957693;28;20318;-77
2024/03/27 12:11:39;;;;;;;6.55;3.30;;;;;;;;;;4988658;28;20054;-77
2024/03/27 12:14:04;;;;;;;4.95;2.90;;;;;;;;;;4957430;28;20109;-77
2024/03/27 12:16:30;;;;;;;6.38;2.90;;;;;;;;;;4973467;28;20054;-77
2024/03/27 12:18:55;;;;;;;4.22;2.70;;;;;;;;;;4989704;28;20050;-77
2024/03/27 12:21:21;;;;;;;2.78;2.10;;;;;;;;;;4989629;28;20050;-78
2024/03/27 12:23:46;;;;;;;3.97;2.22;;;;;;;;;;4951455;28;20046;-77
2024/03/27 12:26:13;;;;;;;2.90;1.35;;;;;;;;;;4985328;28;20424;-78
2024/03/27 12:28:38;;;;;;;5.40;1.40;;;;;;;;;;4973266;28;20520;-78
2024/03/27 12:31:04;;;;;;;2.50;0.90;;;;;;;;;;4960040;28;20070;-77
2024/03/27 12:33:30;;;;;;;1.10;0.90;;;;;;;;;;4987810;28;20058;-79
2024/03/27 12:35:57;;;;;;;2.78;0.95;;;;;;;;;;4990565;28;20050;-76
2024/03/27 12:38:22;;;;;;;1.35;1.20;;;;;;;;;;4957654;28;20101;-78
2024/03/27 12:40:48;;;;;;;2.85;1.05;;;;;;;;;;4949475;28;20141;-78
2024/03/27 12:43:13;;;;;;;0.73;0.73;;;;;;;;;;4973213;28;20069;-78
2024/03/27 12:45:39;;;;;;;1.90;1.20;;;;;;;;;;4976395;28;20053;-79
2024/03/27 12:48:06;;;;;;;1.60;1.15;;;;;;;;;;4961105;28;20046;-78
2024/03/27 12:50:31;;;;;;;1.75;0.90;;;;;;;;;;4999155;28;20046;-78
2024/03/27 12:52:58;;;;;;;1.63;0.82;;;;;;;;;;4948302;28;20119;-78
2024/03/27 12:55:23;;;;;;;1.35;0.90;;;;;;;;;;4973229;28;20050;-78
2024/03/27 12:57:51;;;;;;;2.10;1.00;;;;;;;;;;4974979;28;20050;-78
2024/03/27 13:00:18;;;;;;;1.27;1.10;;;;;;;;;;5000981;28;20053;-78
2024/03/27 13:02:43;;;;;;;1.70;0.98;;;;;;;;;;4987115;28;20544;-78
2024/03/27 13:05:09;;;;;;;1.80;0.90;;;;;;;;;;5003233;28;20090;-78
2024/03/27 13:07:34;;;;;;;0.98;0.88;;;;;;;;;;5000355;28;20057;-78
2024/03/27 13:10:00;;;;;;;2.50;1.10;;;;;;;;;;4974498;28;20477;-78
2024/03/27 13:12:26;;;;;;;0.93;0.80;;;;;;;;;;4959470;28;20436;-77
2024/03/27 13:14:51;;;;;;;1.25;0.95;;;;;;;;;;4959859;28;20050;-78
2024/03/27 13:17:17;;;;;;;1.13;0.90;;;;;;;;;;4998063;28;20054;-78
2024/03/27 13:19:43;;;;;;;0.73;0.70;;;;;;;;;;4950049;28;20053;-79
2024/03/27 13:22:12;;;;;;;1.25;1.10;;;;;;;;;;4962112;28;20089;-78
2024/03/27 13:24:37;;;;;;;1.95;0.90;;;;;;;;;;4985285;28;20042;-78
2024/03/27 13:27:04;;;;;;;1.25;1.15;;;;;;;;;;4998895;28;20058;-79
2024/03/27 13:29:30;;;;;;;1.38;0.80;;;;;;;;;;4985877;28;20050;-77
2024/03/27 13:31:56;;;;;;;1.10;1.00;;;;;;;;;;4991633;28;20086;-78
2024/03/27 13:34:21;;;;;;;2.13;0.85;;;;;;;;;;4960659;28;20050;-78
2024/03/27 13:36:47;;;;;;;1.00;0.80;;;;;;;;;;4990664;28;20105;-78
2024/03/27 13:39:13;;;;;;;1.63;0.88;;;;;;;;;;4984247;28;20072;-79
2024/03/27 13:41:38;;;;;;;1.20;0.80;;;;;;;;;;4970990;28;20069;-79
2024/03/27 13:44:04;;;;;;;0.82;0.70;;;;;;;;;;4988206;28;20050;-78
2024/03/27 13:46:30;;;;;;;1.05;0.70;;;;;;;;;;4963024;28;20061;-78
2024/03/27 13:48:55;;;;;;;1.80;0.75;;;;;;;;;;4987448;28;20047;-78
2024/03/27 13:51:21;;;;;;;0.50;0.50;;;;;;;;;;4956815;28;20052;-79
2024/03/27 13:53:47;;;;;;;1.08;0.70;;;;;;;;;;5005970;28;20052;-79
2024/03/27 13:56:12;;;;;;;0.63;0.63;;;;;;;;;;4964086;28;20054;-79
2024/03/27 13:58:38;;;;;;;0.40;0.40;;;;;;;;;;4950693;28;20152;-79
2024/03/27 14:01:04;;;;;;;0.80;0.75;;;;;;;;;;4994408;28;20077;-79
2024/03/27 14:03:29;;;;;;;1.83;0.68;;;;;;;;;;4953724;28;20111;-78
2024/03/27 14:05:55;;;;;;;0.90;0.68;;;;;;;;;;5003301;28;20219;-79
2024/03/27 14:08:20;;;;;;;2.60;1.10;;;;;;;;;;4962724;28;20042;-78
2024/03/27 14:10:46;;;;;;;0.80;0.80;;;;;;;;;;4961283;28;20054;-78
2024/03/27 14:13:11;;;;;;;0.90;0.60;;;;;;;;;;5000943;28;20046;-77
2024/03/27 14:15:37;;;;;;;2.25;0.85;;;;;;;;;;4994694;28;20132;-78
2024/03/27 14:18:02;;;;;;;0.80;0.80;;;;;;;;;;4952171;28;20062;-78
2024/03/27 14:20:28;;;;;;;1.23;0.60;;;;;;;;;;5007712;28;20066;-78
2024/03/27 14:22:54;;;;;;;1.10;0.70;;;;;;;;;;4988629;28;20100;-78
2024/03/27 14:25:19;;;;;;;0.80;0.80;;;;;;;;;;4960970;28;20050;-78
2024/03/27 14:27:45;;;;;;;1.85;0.80;;;;;;;;;;4962160;28;20062;-78
2024/03/27 14:30:11;;;;;;;1.35;0.70;;;;;;;;;;4988998;28;20050;-78
2024/03/27 14:32:36;;;;;;;1.40;1.05;;;;;;;;;;4974610;28;20500;-78
2024/03/27 14:35:02;;;;;;;1.08;0.90;;;;;;;;;;5003302;28;20058;-78